sensor_id;sensor_type;location;lat;lon;timestamp;temperature;humidity
47162;DHT22;32921;53.256;8.198;2023-05-13T00:00:12;10.50;99.90
47162;DHT22;32921;53.256;8.198;2023-05-13T00:02:37;10.40;99.90
47162;DHT22;32921;53.256;8.198;2023-05-13T00:05:03;10.30;99.90
47162;DHT22;32921;53.256;8.198;2023-05-13T00:07:29;10.20;99.90
47162;DHT22;32921;53.256;8.198;2023-05-13T00:09:54;10.10;99.90
47162;DHT22;32921;53.256;8.198;2023-05-13T00:12:20;10.00;99.90
47162;DHT22;32921;53.256;8.198;2023-05-13T00:14:45;10.00;99.90
47162;DHT22;32921;53.256;8.198;2023-05-13T00:17:11;10.00;99.90
47162;DHT22;32921;53.256;8.198;2023-05-13T00:19:36;10.00;99.90
47162;DHT22;32921;53.256;8.198;2023-05-13T00:22:02;10.00;99.90
47162;DHT22;32921;53.256;8.198;2023-05-13T00:24:28;9.90;99.90
47162;DHT22;32921;53.256;8.198;2023-05-13T00:26:53;9.80;99.90
47162;DHT22;32921;53.256;8.198;2023-05-13T00:29:19;9.80;99.90
47162;DHT22;32921;53.256;8.198;2023-05-13T00:31:44;9.80;99.90
47162;DHT22;32921;53.256;8.198;2023-05-13T00:34:10;9.80;99.90
47162;DHT22;32921;53.256;8.198;2023-05-13T00:36:36;9.80;99.90
47162;DHT22;32921;53.256;8.198;2023-05-13T00:39:02;9.70;99.90
47162;DHT22;32921;53.256;8.198;2023-05-13T00:41:28;9.70;99.90
47162;DHT22;32921;53.256;8.198;2023-05-13T00:43:54;9.60;99.90
47162;DHT22;32921;53.256;8.198;2023-05-13T00:46:21;9.60;99.90
47162;DHT22;32921;53.256;8.198;2023-05-13T00:48:47;9.70;99.90
47162;DHT22;32921;53.256;8.198;2023-05-13T00:51:13;9.80;99.90
47162;DHT22;32921;53.256;8.198;2023-05-13T00:53:39;9.90;99.90
47162;DHT22;32921;53.256;8.198;2023-05-13T00:56:04;9.90;99.90
47162;DHT22;32921;53.256;8.198;2023-05-13T00:58:30;9.90;99.90
47162;DHT22;32921;53.256;8.198;2023-05-13T01:03:32;9.80;99.90
47162;DHT22;32921;53.256;8.198;2023-05-13T01:06:12;9.70;99.90
47162;DHT22;32921;53.256;8.198;2023-05-13T01:08:56;9.60;99.90
47162;DHT22;32921;53.256;8.198;2023-05-13T01:11:26;9.60;99.90
47162;DHT22;32921;53.256;8.198;2023-05-13T01:14:08;9.60;99.90
47162;DHT22;32921;53.256;8.198;2023-05-13T01:16:45;9.60;99.90
47162;DHT22;32921;53.256;8.198;2023-05-13T01:19:43;9.50;99.90
47162;DHT22;32921;53.256;8.198;2023-05-13T01:22:11;9.40;99.90
47162;DHT22;32921;53.256;8.198;2023-05-13T01:24:37;9.40;99.90
47162;DHT22;32921;53.256;8.198;2023-05-13T01:27:02;9.40;99.90
47162;DHT22;32921;53.256;8.198;2023-05-13T01:29:28;9.40;99.90
47162;DHT22;32921;53.256;8.198;2023-05-13T01:31:55;9.30;99.90
47162;DHT22;32921;53.256;8.198;2023-05-13T01:34:22;9.30;99.90
47162;DHT22;32921;53.256;8.198;2023-05-13T01:36:49;9.30;99.90
47162;DHT22;32921;53.256;8.198;2023-05-13T01:39:15;9.30;99.90
47162;DHT22;32921;53.256;8.198;2023-05-13T01:41:42;9.40;99.90
47162;DHT22;32921;53.256;8.198;2023-05-13T01:44:09;9.40;99.90
47162;DHT22;32921;53.256;8.198;2023-05-13T01:46:39;9.40;99.90
47162;DHT22;32921;53.256;8.198;2023-05-13T01:49:04;9.40;99.90
47162;DHT22;32921;53.256;8.198;2023-05-13T01:51:32;9.30;99.90
47162;DHT22;32921;53.256;8.198;2023-05-13T01:53:57;9.20;99.90
47162;DHT22;32921;53.256;8.198;2023-05-13T01:56:23;9.20;99.90
47162;DHT22;32921;53.256;8.198;2023-05-13T01:58:48;9.10;99.90
47162;DHT22;32921;53.256;8.198;2023-05-13T02:01:14;8.90;99.90
47162;DHT22;32921;53.256;8.198;2023-05-13T02:03:40;9.00;99.90
47162;DHT22;32921;53.256;8.198;2023-05-13T02:06:05;8.90;99.90
47162;DHT22;32921;53.256;8.198;2023-05-13T02:08:31;8.70;99.90
47162;DHT22;32921;53.256;8.198;2023-05-13T02:10:57;8.80;99.90
47162;DHT22;32921;53.256;8.198;2023-05-13T02:13:24;8.70;99.90
47162;DHT22;32921;53.256;8.198;2023-05-13T02:15:49;8.70;99.90
47162;DHT22;32921;53.256;8.198;2023-05-13T02:18:15;8.70;99.90
47162;DHT22;32921;53.256;8.198;2023-05-13T02:20:40;8.60;99.90
47162;DHT22;32921;53.256;8.198;2023-05-13T02:23:06;8.60;99.90
47162;DHT22;32921;53.256;8.198;2023-05-13T02:25:32;8.60;99.90
47162;DHT22;32921;53.256;8.198;2023-05-13T02:27:58;8.60;99.90
47162;DHT22;32921;53.256;8.198;2023-05-13T02:30:24;8.50;99.90
47162;DHT22;32921;53.256;8.198;2023-05-13T02:32:52;8.50;99.90
47162;DHT22;32921;53.256;8.198;2023-05-13T02:35:18;8.40;99.90
47162;DHT22;32921;53.256;8.198;2023-05-13T02:37:44;8.40;99.90
47162;DHT22;32921;53.256;8.198;2023-05-13T02:40:10;8.50;99.90
47162;DHT22;32921;53.256;8.198;2023-05-13T02:42:36;8.50;99.90
47162;DHT22;32921;53.256;8.198;2023-05-13T02:45:01;8.40;99.90
47162;DHT22;32921;53.256;8.198;2023-05-13T02:47:27;8.30;99.90
47162;DHT22;32921;53.256;8.198;2023-05-13T02:49:54;8.30;99.90
47162;DHT22;32921;53.256;8.198;2023-05-13T02:52:20;8.30;99.90
47162;DHT22;32921;53.256;8.198;2023-05-13T02:54:46;8.40;99.90
47162;DHT22;32921;53.256;8.198;2023-05-13T02:57:12;8.30;99.90
47162;DHT22;32921;53.256;8.198;2023-05-13T02:59:37;8.20;99.90
47162;DHT22;32921;53.256;8.198;2023-05-13T03:02:03;8.20;99.90
47162;DHT22;32921;53.256;8.198;2023-05-13T03:04:28;8.30;99.90
47162;DHT22;32921;53.256;8.198;2023-05-13T03:06:54;8.20;99.90
47162;DHT22;32921;53.256;8.198;2023-05-13T03:09:20;8.10;99.90
47162;DHT22;32921;53.256;8.198;2023-05-13T03:11:45;8.20;99.90
47162;DHT22;32921;53.256;8.198;2023-05-13T03:14:11;8.20;99.90
47162;DHT22;32921;53.256;8.198;2023-05-13T03:16:36;8.20;99.90
47162;DHT22;32921;53.256;8.198;2023-05-13T03:19:02;8.10;99.90
47162;DHT22;32921;53.256;8.198;2023-05-13T03:21:27;8.20;99.90
47162;DHT22;32921;53.256;8.198;2023-05-13T03:23:53;8.10;99.90
47162;DHT22;32921;53.256;8.198;2023-05-13T03:26:19;8.20;99.90
47162;DHT22;32921;53.256;8.198;2023-05-13T03:28:45;8.30;99.90
47162;DHT22;32921;53.256;8.198;2023-05-13T03:31:11;8.30;99.90
47162;DHT22;32921;53.256;8.198;2023-05-13T03:33:37;8.20;99.90
47162;DHT22;32921;53.256;8.198;2023-05-13T03:36:03;8.20;99.90
47162;DHT22;32921;53.256;8.198;2023-05-13T03:38:29;8.30;99.90
47162;DHT22;32921;53.256;8.198;2023-05-13T03:40:55;8.30;99.90
47162;DHT22;32921;53.256;8.198;2023-05-13T03:43:21;8.40;99.90
47162;DHT22;32921;53.256;8.198;2023-05-13T03:45:47;8.40;99.90
47162;DHT22;32921;53.256;8.198;2023-05-13T03:48:13;8.40;99.90
47162;DHT22;32921;53.256;8.198;2023-05-13T03:50:39;8.40;99.90
47162;DHT22;32921;53.256;8.198;2023-05-13T03:53:05;8.40;99.90
47162;DHT22;32921;53.256;8.198;2023-05-13T03:55:31;8.30;99.90
47162;DHT22;32921;53.256;8.198;2023-05-13T03:57:57;8.40;99.90
47162;DHT22;32921;53.256;8.198;2023-05-13T04:00:23;8.30;99.90
47162;DHT22;32921;53.256;8.198;2023-05-13T04:02:48;8.40;99.90
47162;DHT22;32921;53.256;8.198;2023-05-13T04:05:14;8.50;99.90
47162;DHT22;32921;53.256;8.198;2023-05-13T04:07:40;8.70;99.90
47162;DHT22;32921;53.256;8.198;2023-05-13T04:10:06;8.70;99.90
47162;DHT22;32921;53.256;8.198;2023-05-13T04:12:32;8.70;99.90
47162;DHT22;32921;53.256;8.198;2023-05-13T04:14:58;8.60;99.90
47162;DHT22;32921;53.256;8.198;2023-05-13T04:17:24;8.60;99.90
47162;DHT22;32921;53.256;8.198;2023-05-13T04:19:53;8.70;99.90
47162;DHT22;32921;53.256;8.198;2023-05-13T04:22:20;8.60;99.90
47162;DHT22;32921;53.256;8.198;2023-05-13T04:24:46;8.70;99.90
47162;DHT22;32921;53.256;8.198;2023-05-13T04:27:11;8.70;99.90
47162;DHT22;32921;53.256;8.198;2023-05-13T04:29:37;8.80;99.90
47162;DHT22;32921;53.256;8.198;2023-05-13T04:32:02;8.90;99.90
47162;DHT22;32921;53.256;8.198;2023-05-13T04:34:28;8.90;99.90
47162;DHT22;32921;53.256;8.198;2023-05-13T04:36:53;9.00;99.90
47162;DHT22;32921;53.256;8.198;2023-05-13T04:39:19;9.10;99.90
47162;DHT22;32921;53.256;8.198;2023-05-13T04:41:45;9.20;99.90
47162;DHT22;32921;53.256;8.198;2023-05-13T04:44:10;9.20;99.90
47162;DHT22;32921;53.256;8.198;2023-05-13T04:46:36;9.30;99.90
47162;DHT22;32921;53.256;8.198;2023-05-13T04:49:04;9.30;99.90
47162;DHT22;32921;53.256;8.198;2023-05-13T04:51:30;9.40;99.90
47162;DHT22;32921;53.256;8.198;2023-05-13T04:53:57;9.50;99.90
47162;DHT22;32921;53.256;8.198;2023-05-13T04:56:23;9.50;99.90
47162;DHT22;32921;53.256;8.198;2023-05-13T04:58:48;9.60;99.90
47162;DHT22;32921;53.256;8.198;2023-05-13T05:01:14;9.70;99.90
47162;DHT22;32921;53.256;8.198;2023-05-13T05:03:40;9.70;99.90
47162;DHT22;32921;53.256;8.198;2023-05-13T05:06:05;9.70;99.90
47162;DHT22;32921;53.256;8.198;2023-05-13T05:08:31;9.80;99.90
47162;DHT22;32921;53.256;8.198;2023-05-13T05:10:58;9.80;99.90
47162;DHT22;32921;53.256;8.198;2023-05-13T05:13:24;9.90;99.90
47162;DHT22;32921;53.256;8.198;2023-05-13T05:15:50;10.00;99.90
47162;DHT22;32921;53.256;8.198;2023-05-13T05:18:15;10.20;99.90
47162;DHT22;32921;53.256;8.198;2023-05-13T05:20:41;10.30;99.90
47162;DHT22;32921;53.256;8.198;2023-05-13T05:23:06;10.60;99.90
47162;DHT22;32921;53.256;8.198;2023-05-13T05:25:35;11.00;99.90
47162;DHT22;32921;53.256;8.198;2023-05-13T05:28:00;11.30;99.90
47162;DHT22;32921;53.256;8.198;2023-05-13T05:30:29;11.50;99.90
47162;DHT22;32921;53.256;8.198;2023-05-13T05:32:57;11.60;99.90
47162;DHT22;32921;53.256;8.198;2023-05-13T05:35:22;11.70;99.90
47162;DHT22;32921;53.256;8.198;2023-05-13T05:37:48;11.70;99.90
47162;DHT22;32921;53.256;8.198;2023-05-13T05:40:13;11.70;99.90
47162;DHT22;32921;53.256;8.198;2023-05-13T05:42:39;11.80;99.90
47162;DHT22;32921;53.256;8.198;2023-05-13T05:45:05;11.90;99.90
47162;DHT22;32921;53.256;8.198;2023-05-13T05:47:31;11.90;99.90
47162;DHT22;32921;53.256;8.198;2023-05-13T05:49:56;11.90;99.90
47162;DHT22;32921;53.256;8.198;2023-05-13T05:52:22;12.00;99.90
47162;DHT22;32921;53.256;8.198;2023-05-13T05:54:48;12.10;99.90
47162;DHT22;32921;53.256;8.198;2023-05-13T05:57:13;12.30;99.90
47162;DHT22;32921;53.256;8.198;2023-05-13T05:59:39;12.50;99.90
47162;DHT22;32921;53.256;8.198;2023-05-13T06:02:04;12.70;99.90
47162;DHT22;32921;53.256;8.198;2023-05-13T06:04:30;13.20;99.90
47162;DHT22;32921;53.256;8.198;2023-05-13T06:06:56;13.90;98.70
47162;DHT22;32921;53.256;8.198;2023-05-13T06:09:21;14.40;96.00
47162;DHT22;32921;53.256;8.198;2023-05-13T06:11:47;14.80;93.90
47162;DHT22;32921;53.256;8.198;2023-05-13T06:14:12;15.10;92.90
47162;DHT22;32921;53.256;8.198;2023-05-13T06:16:38;15.60;90.70
47162;DHT22;32921;53.256;8.198;2023-05-13T06:19:03;15.70;90.00
47162;DHT22;32921;53.256;8.198;2023-05-13T06:21:29;15.70;88.40
47162;DHT22;32921;53.256;8.198;2023-05-13T06:23:56;15.90;88.30
47162;DHT22;32921;53.256;8.198;2023-05-13T06:26:21;16.30;86.20
47162;DHT22;32921;53.256;8.198;2023-05-13T06:28:47;16.60;83.80
47162;DHT22;32921;53.256;8.198;2023-05-13T06:31:13;16.60;82.50
47162;DHT22;32921;53.256;8.198;2023-05-13T06:33:39;16.30;82.40
47162;DHT22;32921;53.256;8.198;2023-05-13T06:36:05;16.50;83.40
47162;DHT22;32921;53.256;8.198;2023-05-13T06:38:30;16.50;82.90
47162;DHT22;32921;53.256;8.198;2023-05-13T06:40:56;17.00;81.90
47162;DHT22;32921;53.256;8.198;2023-05-13T06:43:21;17.20;79.80
47162;DHT22;32921;53.256;8.198;2023-05-13T06:45:47;17.40;78.30
47162;DHT22;32921;53.256;8.198;2023-05-13T06:48:14;17.80;76.70
47162;DHT22;32921;53.256;8.198;2023-05-13T06:50:40;18.10;76.20
47162;DHT22;32921;53.256;8.198;2023-05-13T06:53:05;18.70;72.80
47162;DHT22;32921;53.256;8.198;2023-05-13T06:55:31;18.80;71.10
47162;DHT22;32921;53.256;8.198;2023-05-13T06:57:57;18.50;71.70
47162;DHT22;32921;53.256;8.198;2023-05-13T07:00:22;18.90;70.80
47162;DHT22;32921;53.256;8.198;2023-05-13T07:02:48;19.10;68.90
47162;DHT22;32921;53.256;8.198;2023-05-13T07:05:13;18.90;68.90
47162;DHT22;32921;53.256;8.198;2023-05-13T07:07:39;19.00;69.20
47162;DHT22;32921;53.256;8.198;2023-05-13T07:10:05;19.00;68.30
47162;DHT22;32921;53.256;8.198;2023-05-13T07:12:30;19.70;68.20
47162;DHT22;32921;53.256;8.198;2023-05-13T07:14:56;19.90;65.00
47162;DHT22;32921;53.256;8.198;2023-05-13T07:17:22;20.00;64.10
47162;DHT22;32921;53.256;8.198;2023-05-13T07:19:48;20.00;64.30
47162;DHT22;32921;53.256;8.198;2023-05-13T07:22:13;20.30;64.20
47162;DHT22;32921;53.256;8.198;2023-05-13T07:24:39;20.60;63.50
47162;DHT22;32921;53.256;8.198;2023-05-13T07:27:06;20.90;62.40
47162;DHT22;32921;53.256;8.198;2023-05-13T07:29:32;21.00;62.30
47162;DHT22;32921;53.256;8.198;2023-05-13T07:32:05;21.30;60.80
47162;DHT22;32921;53.256;8.198;2023-05-13T07:34:30;21.30;60.30
47162;DHT22;32921;53.256;8.198;2023-05-13T07:36:56;21.40;58.60
47162;DHT22;32921;53.256;8.198;2023-05-13T07:39:22;21.40;59.20
47162;DHT22;32921;53.256;8.198;2023-05-13T07:41:48;21.80;59.00
47162;DHT22;32921;53.256;8.198;2023-05-13T07:44:14;22.00;56.70
47162;DHT22;32921;53.256;8.198;2023-05-13T07:46:40;21.50;57.50
47162;DHT22;32921;53.256;8.198;2023-05-13T07:49:05;21.80;58.10
47162;DHT22;32921;53.256;8.198;2023-05-13T07:51:34;21.80;59.00
47162;DHT22;32921;53.256;8.198;2023-05-13T07:53:59;21.80;58.00
47162;DHT22;32921;53.256;8.198;2023-05-13T07:56:25;21.60;58.40
47162;DHT22;32921;53.256;8.198;2023-05-13T07:58:50;21.90;58.40
47162;DHT22;32921;53.256;8.198;2023-05-13T08:01:16;22.00;58.40
47162;DHT22;32921;53.256;8.198;2023-05-13T08:03:42;22.50;57.40
47162;DHT22;32921;53.256;8.198;2023-05-13T08:06:07;22.70;56.50
47162;DHT22;32921;53.256;8.198;2023-05-13T08:08:33;22.40;54.80
47162;DHT22;32921;53.256;8.198;2023-05-13T08:10:58;22.10;57.60
47162;DHT22;32921;53.256;8.198;2023-05-13T08:13:24;22.00;57.80
47162;DHT22;32921;53.256;8.198;2023-05-13T08:15:50;22.50;56.40
47162;DHT22;32921;53.256;8.198;2023-05-13T08:18:16;22.60;55.90
47162;DHT22;32921;53.256;8.198;2023-05-13T08:20:42;22.90;55.10
47162;DHT22;32921;53.256;8.198;2023-05-13T08:23:08;22.70;54.70
47162;DHT22;32921;53.256;8.198;2023-05-13T08:25:33;23.20;54.10
47162;DHT22;32921;53.256;8.198;2023-05-13T08:27:59;23.10;53.00
47162;DHT22;32921;53.256;8.198;2023-05-13T08:30:24;23.20;53.20
47162;DHT22;32921;53.256;8.198;2023-05-13T08:32:50;23.60;52.10
47162;DHT22;32921;53.256;8.198;2023-05-13T08:35:16;23.30;52.10
47162;DHT22;32921;53.256;8.198;2023-05-13T08:37:41;23.50;51.90
47162;DHT22;32921;53.256;8.198;2023-05-13T08:40:09;23.40;52.50
47162;DHT22;32921;53.256;8.198;2023-05-13T08:42:38;23.20;54.70
47162;DHT22;32921;53.256;8.198;2023-05-13T08:45:04;23.60;53.20
47162;DHT22;32921;53.256;8.198;2023-05-13T08:50:03;24.70;53.40
47162;DHT22;32921;53.256;8.198;2023-05-13T08:52:28;25.00;51.70
47162;DHT22;32921;53.256;8.198;2023-05-13T08:54:58;25.10;52.40
47162;DHT22;32921;53.256;8.198;2023-05-13T08:57:25;25.40;50.50
47162;DHT22;32921;53.256;8.198;2023-05-13T08:59:51;25.50;51.80
47162;DHT22;32921;53.256;8.198;2023-05-13T09:02:16;25.00;50.20
47162;DHT22;32921;53.256;8.198;2023-05-13T09:04:43;25.00;51.80
47162;DHT22;32921;53.256;8.198;2023-05-13T09:07:11;25.30;52.50
47162;DHT22;32921;53.256;8.198;2023-05-13T09:09:36;25.30;52.70
47162;DHT22;32921;53.256;8.198;2023-05-13T09:12:02;25.10;50.60
47162;DHT22;32921;53.256;8.198;2023-05-13T09:14:31;24.90;48.30
47162;DHT22;32921;53.256;8.198;2023-05-13T09:16:57;24.90;49.50
47162;DHT22;32921;53.256;8.198;2023-05-13T09:19:23;25.40;53.00
47162;DHT22;32921;53.256;8.198;2023-05-13T09:21:49;25.50;48.40
47162;DHT22;32921;53.256;8.198;2023-05-13T09:24:16;25.70;51.50
47162;DHT22;32921;53.256;8.198;2023-05-13T09:26:49;25.40;52.40
47162;DHT22;32921;53.256;8.198;2023-05-13T09:29:19;25.50;51.70
47162;DHT22;32921;53.256;8.198;2023-05-13T09:31:56;25.00;53.70
47162;DHT22;32921;53.256;8.198;2023-05-13T09:34:29;25.40;52.10
47162;DHT22;32921;53.256;8.198;2023-05-13T09:37:06;25.40;52.60
47162;DHT22;32921;53.256;8.198;2023-05-13T09:39:42;25.20;53.50
47162;DHT22;32921;53.256;8.198;2023-05-13T09:42:33;25.50;49.90
47162;DHT22;32921;53.256;8.198;2023-05-13T09:45:03;25.90;48.90
47162;DHT22;32921;53.256;8.198;2023-05-13T09:47:30;25.60;48.00
47162;DHT22;32921;53.256;8.198;2023-05-13T09:49:56;25.50;50.00
47162;DHT22;32921;53.256;8.198;2023-05-13T09:52:22;25.90;51.10
47162;DHT22;32921;53.256;8.198;2023-05-13T09:54:47;25.60;51.80
47162;DHT22;32921;53.256;8.198;2023-05-13T09:57:14;25.20;53.30
47162;DHT22;32921;53.256;8.198;2023-05-13T09:59:40;25.10;54.80
47162;DHT22;32921;53.256;8.198;2023-05-13T10:02:08;25.60;53.60
47162;DHT22;32921;53.256;8.198;2023-05-13T10:04:34;26.00;51.10
47162;DHT22;32921;53.256;8.198;2023-05-13T10:07:02;26.30;49.50
47162;DHT22;32921;53.256;8.198;2023-05-13T10:09:33;26.10;47.30
47162;DHT22;32921;53.256;8.198;2023-05-13T10:12:01;26.20;48.80
47162;DHT22;32921;53.256;8.198;2023-05-13T10:14:27;26.30;49.40
47162;DHT22;32921;53.256;8.198;2023-05-13T10:16:54;26.20;50.20
47162;DHT22;32921;53.256;8.198;2023-05-13T10:19:21;26.30;46.60
47162;DHT22;32921;53.256;8.198;2023-05-13T10:21:48;27.00;49.10
47162;DHT22;32921;53.256;8.198;2023-05-13T10:24:15;27.60;47.40
47162;DHT22;32921;53.256;8.198;2023-05-13T10:26:40;27.40;47.40
47162;DHT22;32921;53.256;8.198;2023-05-13T10:29:08;27.50;47.00
47162;DHT22;32921;53.256;8.198;2023-05-13T10:31:35;28.00;44.20
47162;DHT22;32921;53.256;8.198;2023-05-13T10:34:02;27.50;42.60
47162;DHT22;32921;53.256;8.198;2023-05-13T10:36:50;27.40;43.00
47162;DHT22;32921;53.256;8.198;2023-05-13T10:42:36;27.50;42.40
47162;DHT22;32921;53.256;8.198;2023-05-13T10:45:02;28.00;42.10
47162;DHT22;32921;53.256;8.198;2023-05-13T10:47:31;28.00;38.70
47162;DHT22;32921;53.256;8.198;2023-05-13T10:49:57;28.00;37.20
47162;DHT22;32921;53.256;8.198;2023-05-13T10:52:23;28.10;33.90
47162;DHT22;32921;53.256;8.198;2023-05-13T10:55:18;27.90;34.60
47162;DHT22;32921;53.256;8.198;2023-05-13T10:58:03;27.70;33.70
47162;DHT22;32921;53.256;8.198;2023-05-13T11:00:30;28.10;34.10
47162;DHT22;32921;53.256;8.198;2023-05-13T11:02:56;28.00;33.10
47162;DHT22;32921;53.256;8.198;2023-05-13T11:05:22;27.70;33.70
47162;DHT22;32921;53.256;8.198;2023-05-13T11:07:57;27.90;31.50
47162;DHT22;32921;53.256;8.198;2023-05-13T11:10:28;28.10;31.70
47162;DHT22;32921;53.256;8.198;2023-05-13T11:15:49;28.60;31.30
47162;DHT22;32921;53.256;8.198;2023-05-13T11:18:15;28.30;33.00
47162;DHT22;32921;53.256;8.198;2023-05-13T11:20:45;28.50;29.70
47162;DHT22;32921;53.256;8.198;2023-05-13T11:23:18;29.10;28.30
47162;DHT22;32921;53.256;8.198;2023-05-13T11:25:44;30.00;28.60
47162;DHT22;32921;53.256;8.198;2023-05-13T11:28:14;29.60;28.10
47162;DHT22;32921;53.256;8.198;2023-05-13T11:30:52;28.80;27.10
47162;DHT22;32921;53.256;8.198;2023-05-13T11:33:18;29.00;27.60
47162;DHT22;32921;53.256;8.198;2023-05-13T11:35:52;28.70;28.80
47162;DHT22;32921;53.256;8.198;2023-05-13T11:38:23;28.90;28.90
47162;DHT22;32921;53.256;8.198;2023-05-13T11:40:49;30.00;27.70
47162;DHT22;32921;53.256;8.198;2023-05-13T11:43:20;29.10;27.60
47162;DHT22;32921;53.256;8.198;2023-05-13T11:45:49;28.00;28.80
47162;DHT22;32921;53.256;8.198;2023-05-13T11:48:22;27.50;28.30
47162;DHT22;32921;53.256;8.198;2023-05-13T11:50:51;27.40;29.30
47162;DHT22;32921;53.256;8.198;2023-05-13T11:53:20;27.90;29.80
47162;DHT22;32921;53.256;8.198;2023-05-13T11:55:47;29.40;28.00
47162;DHT22;32921;53.256;8.198;2023-05-13T11:58:13;29.20;28.30
47162;DHT22;32921;53.256;8.198;2023-05-13T12:00:41;29.20;27.50
47162;DHT22;32921;53.256;8.198;2023-05-13T12:03:10;28.50;27.60
47162;DHT22;32921;53.256;8.198;2023-05-13T12:05:37;26.70;29.90
47162;DHT22;32921;53.256;8.198;2023-05-13T12:08:02;27.20;29.90
47162;DHT22;32921;53.256;8.198;2023-05-13T12:10:28;27.30;30.60
47162;DHT22;32921;53.256;8.198;2023-05-13T12:12:54;27.00;30.70
47162;DHT22;32921;53.256;8.198;2023-05-13T12:15:20;27.20;29.70
47162;DHT22;32921;53.256;8.198;2023-05-13T12:17:47;28.30;28.80
47162;DHT22;32921;53.256;8.198;2023-05-13T12:20:18;29.50;28.70
47162;DHT22;32921;53.256;8.198;2023-05-13T12:25:35;29.80;27.80
47162;DHT22;32921;53.256;8.198;2023-05-13T12:30:58;29.70;27.70
47162;DHT22;32921;53.256;8.198;2023-05-13T12:33:26;28.70;28.20
47162;DHT22;32921;53.256;8.198;2023-05-13T12:35:54;29.00;27.60
47162;DHT22;32921;53.256;8.198;2023-05-13T12:38:21;29.30;27.70
47162;DHT22;32921;53.256;8.198;2023-05-13T12:40:49;28.60;28.20
47162;DHT22;32921;53.256;8.198;2023-05-13T12:43:18;28.20;28.10
47162;DHT22;32921;53.256;8.198;2023-05-13T12:45:46;27.20;29.50
47162;DHT22;32921;53.256;8.198;2023-05-13T12:48:12;27.70;29.30
47162;DHT22;32921;53.256;8.198;2023-05-13T12:50:38;28.40;29.10
47162;DHT22;32921;53.256;8.198;2023-05-13T12:53:04;27.80;29.40
47162;DHT22;32921;53.256;8.198;2023-05-13T12:55:30;26.80;30.00
47162;DHT22;32921;53.256;8.198;2023-05-13T12:57:59;25.90;30.80
47162;DHT22;32921;53.256;8.198;2023-05-13T13:00:24;26.60;30.00
47162;DHT22;32921;53.256;8.198;2023-05-13T13:02:50;28.00;29.50
47162;DHT22;32921;53.256;8.198;2023-05-13T13:05:21;28.20;29.00
47162;DHT22;32921;53.256;8.198;2023-05-13T13:07:47;28.40;30.20
47162;DHT22;32921;53.256;8.198;2023-05-13T13:10:13;29.30;28.60
47162;DHT22;32921;53.256;8.198;2023-05-13T13:12:38;29.50;27.90
47162;DHT22;32921;53.256;8.198;2023-05-13T13:15:06;30.60;27.10
47162;DHT22;32921;53.256;8.198;2023-05-13T13:17:32;30.50;26.30
47162;DHT22;32921;53.256;8.198;2023-05-13T13:19:58;30.20;27.30
47162;DHT22;32921;53.256;8.198;2023-05-13T13:22:24;28.20;28.40
47162;DHT22;32921;53.256;8.198;2023-05-13T13:24:50;28.30;28.20
47162;DHT22;32921;53.256;8.198;2023-05-13T13:27:15;29.50;27.80
47162;DHT22;32921;53.256;8.198;2023-05-13T13:29:41;30.20;27.20
47162;DHT22;32921;53.256;8.198;2023-05-13T13:32:06;30.80;26.30
47162;DHT22;32921;53.256;8.198;2023-05-13T13:34:32;31.80;25.80
47162;DHT22;32921;53.256;8.198;2023-05-13T13:36:58;31.40;26.50
47162;DHT22;32921;53.256;8.198;2023-05-13T13:39:23;31.60;26.10
47162;DHT22;32921;53.256;8.198;2023-05-13T13:41:49;31.60;25.50
47162;DHT22;32921;53.256;8.198;2023-05-13T13:44:14;31.40;25.10
47162;DHT22;32921;53.256;8.198;2023-05-13T13:46:40;31.50;25.30
47162;DHT22;32921;53.256;8.198;2023-05-13T13:49:06;32.10;25.00
47162;DHT22;32921;53.256;8.198;2023-05-13T13:51:31;31.40;25.40
47162;DHT22;32921;53.256;8.198;2023-05-13T13:54:03;32.00;25.10
47162;DHT22;32921;53.256;8.198;2023-05-13T13:56:28;31.40;27.00
47162;DHT22;32921;53.256;8.198;2023-05-13T13:58:54;31.70;25.90
47162;DHT22;32921;53.256;8.198;2023-05-13T14:01:20;30.40;27.70
47162;DHT22;32921;53.256;8.198;2023-05-13T14:03:48;31.60;25.40
47162;DHT22;32921;53.256;8.198;2023-05-13T14:06:14;32.20;25.20
47162;DHT22;32921;53.256;8.198;2023-05-13T14:08:39;31.70;25.70
47162;DHT22;32921;53.256;8.198;2023-05-13T14:11:05;31.50;25.90
47162;DHT22;32921;53.256;8.198;2023-05-13T14:13:31;30.40;26.30
47162;DHT22;32921;53.256;8.198;2023-05-13T14:15:56;30.40;26.70
47162;DHT22;32921;53.256;8.198;2023-05-13T14:18:22;30.50;25.90
47162;DHT22;32921;53.256;8.198;2023-05-13T14:20:47;30.40;26.20
47162;DHT22;32921;53.256;8.198;2023-05-13T14:23:14;30.60;25.70
47162;DHT22;32921;53.256;8.198;2023-05-13T14:25:40;31.20;24.70
47162;DHT22;32921;53.256;8.198;2023-05-13T14:28:06;31.00;25.30
47162;DHT22;32921;53.256;8.198;2023-05-13T14:30:31;31.20;24.80
47162;DHT22;32921;53.256;8.198;2023-05-13T14:32:57;31.00;25.70
47162;DHT22;32921;53.256;8.198;2023-05-13T14:35:24;30.50;26.00
47162;DHT22;32921;53.256;8.198;2023-05-13T14:37:50;29.50;26.60
47162;DHT22;32921;53.256;8.198;2023-05-13T14:40:16;30.40;26.80
47162;DHT22;32921;53.256;8.198;2023-05-13T14:42:41;32.10;25.20
47162;DHT22;32921;53.256;8.198;2023-05-13T14:45:07;31.40;25.70
47162;DHT22;32921;53.256;8.198;2023-05-13T14:47:32;32.70;24.50
47162;DHT22;32921;53.256;8.198;2023-05-13T14:49:58;32.70;24.60
47162;DHT22;32921;53.256;8.198;2023-05-13T14:52:24;31.60;26.60
47162;DHT22;32921;53.256;8.198;2023-05-13T14:54:50;30.50;29.60
47162;DHT22;32921;53.256;8.198;2023-05-13T14:57:16;30.40;30.60
47162;DHT22;32921;53.256;8.198;2023-05-13T14:59:42;30.20;29.90
47162;DHT22;32921;53.256;8.198;2023-05-13T15:02:07;29.70;31.00
47162;DHT22;32921;53.256;8.198;2023-05-13T15:04:33;29.50;33.40
47162;DHT22;32921;53.256;8.198;2023-05-13T15:07:00;29.60;34.10
47162;DHT22;32921;53.256;8.198;2023-05-13T15:09:25;29.30;35.60
47162;DHT22;32921;53.256;8.198;2023-05-13T15:11:51;29.10;34.30
47162;DHT22;32921;53.256;8.198;2023-05-13T15:14:17;29.30;33.30
47162;DHT22;32921;53.256;8.198;2023-05-13T15:16:43;30.20;32.40
47162;DHT22;32921;53.256;8.198;2023-05-13T15:19:08;29.90;32.00
47162;DHT22;32921;53.256;8.198;2023-05-13T15:21:34;30.60;32.20
47162;DHT22;32921;53.256;8.198;2023-05-13T15:23:59;30.00;32.50
47162;DHT22;32921;53.256;8.198;2023-05-13T15:26:25;30.00;31.70
47162;DHT22;32921;53.256;8.198;2023-05-13T15:28:51;30.60;30.70
47162;DHT22;32921;53.256;8.198;2023-05-13T15:31:16;30.50;31.80
47162;DHT22;32921;53.256;8.198;2023-05-13T15:33:42;30.60;31.90
47162;DHT22;32921;53.256;8.198;2023-05-13T15:36:07;29.70;33.10
47162;DHT22;32921;53.256;8.198;2023-05-13T15:38:34;29.60;33.20
47162;DHT22;32921;53.256;8.198;2023-05-13T15:41:00;29.10;33.70
47162;DHT22;32921;53.256;8.198;2023-05-13T15:43:26;29.00;34.50
47162;DHT22;32921;53.256;8.198;2023-05-13T15:45:51;28.90;34.50
47162;DHT22;32921;53.256;8.198;2023-05-13T15:48:17;28.90;35.20